createdAt,value
2023-02-27T00:02:07.629Z,77436.31
2023-02-27T00:04:35.360Z,77426.13
2023-02-27T00:07:03.125Z,77424.09
2023-02-27T00:09:30.855Z,77432.25
2023-02-27T00:11:58.604Z,77432.25
2023-02-27T00:14:28.551Z,77434.28
2023-02-27T00:16:56.373Z,77432.25
2023-02-27T00:19:24.145Z,77436.31
2023-02-27T00:21:52.009Z,77444.47
2023-02-27T00:24:19.855Z,77448.56
2023-02-27T00:26:47.590Z,77460.78
2023-02-27T00:29:15.397Z,77458.75
2023-02-27T00:31:44.587Z,77454.69
2023-02-27T00:34:12.418Z,77460.78
2023-02-27T00:36:40.229Z,77464.88
2023-02-27T00:39:08.136Z,77456.72
2023-02-27T00:41:35.884Z,77458.75
2023-02-27T00:44:03.691Z,77454.69
2023-02-27T00:46:31.460Z,77456.72
2023-02-27T00:49:00.570Z,77460.78
2023-02-27T00:51:28.519Z,77462.84
2023-02-27T00:53:56.564Z,77462.84
2023-02-27T00:56:24.354Z,77464.88
2023-02-27T00:58:52.163Z,77464.88
2023-02-27T01:01:19.886Z,77464.88
2023-02-27T01:03:47.686Z,77456.72
2023-02-27T01:06:16.827Z,77456.72
2023-02-27T01:08:44.616Z,77448.56
2023-02-27T01:11:12.363Z,77450.59
2023-02-27T01:13:40.141Z,77454.69
2023-02-27T01:16:10.530Z,77464.88
2023-02-27T01:18:38.320Z,77473.03
2023-02-27T01:21:06.790Z,77458.75
2023-02-27T01:23:35.932Z,77462.84
2023-02-27T01:26:03.788Z,77468.94
2023-02-27T01:28:31.587Z,77468.94
2023-02-27T01:30:59.367Z,77481.19
2023-02-27T01:33:27.858Z,77491.38
2023-02-27T01:35:55.921Z,77485.28
2023-02-27T01:38:23.751Z,77481.19
2023-02-27T01:40:52.833Z,77485.28
2023-02-27T01:43:22.104Z,77485.28
2023-02-27T01:45:50.440Z,77489.34
2023-02-27T01:48:21.017Z,77489.34
2023-02-27T01:50:54.305Z,77481.19
2023-02-27T01:53:25.830Z,77485.28
2023-02-27T01:55:59.377Z,77491.38
2023-02-27T01:58:28.032Z,77493.44
2023-02-27T02:00:56.554Z,77493.44
2023-02-27T02:03:30.708Z,77485.28
2023-02-27T02:06:01.017Z,77493.44
2023-02-27T02:08:32.943Z,77491.38
2023-02-27T02:11:02.198Z,77499.53
2023-02-27T02:13:30.128Z,77503.63
2023-02-27T02:16:13.546Z,77497.50
2023-02-27T02:18:50.197Z,77501.59
2023-02-27T02:21:46.032Z,77497.50
2023-02-27T02:25:06.170Z,77503.63
2023-02-27T02:27:48.853Z,77509.75
2023-02-27T02:30:59.383Z,77505.66
2023-02-27T02:34:04.595Z,77509.75
2023-02-27T02:37:07.462Z,77511.78
2023-02-27T02:40:00.990Z,77509.75
2023-02-27T02:42:36.652Z,77507.69
2023-02-27T02:45:14.254Z,77507.69
2023-02-27T02:47:54.140Z,77513.81
2023-02-27T02:50:27.866Z,77513.81
2023-02-27T02:53:05.639Z,77509.75
2023-02-27T02:55:40.078Z,77517.91
2023-02-27T02:58:13.787Z,77521.97
2023-02-27T03:00:46.350Z,77524.03
2023-02-27T03:03:20.253Z,77530.13
2023-02-27T03:05:53.932Z,77534.22
2023-02-27T03:08:25.884Z,77538.28
2023-02-27T03:10:58.936Z,77536.25
2023-02-27T03:13:31.749Z,77544.41
2023-02-27T03:16:05.859Z,77534.22
2023-02-27T03:18:37.692Z,77546.47
2023-02-27T03:21:10.836Z,77546.47
2023-02-27T03:23:45.602Z,77542.38
2023-02-27T03:26:18.325Z,77546.47
2023-02-27T03:28:55.173Z,77550.53
2023-02-27T03:31:28.828Z,77554.63
2023-02-27T03:34:03.388Z,77558.69
2023-02-27T03:36:39.179Z,77566.84
2023-02-27T03:39:14.315Z,77566.84
2023-02-27T03:41:51.402Z,77566.84
2023-02-27T03:44:29.648Z,77575.00
2023-02-27T03:46:57.743Z,77575.00
2023-02-27T03:49:25.751Z,77568.91
2023-02-27T03:51:53.706Z,77575.00
2023-02-27T03:54:27.297Z,77575.00
2023-02-27T03:57:01.781Z,77575.00
2023-02-27T03:59:30.445Z,77570.94
2023-02-27T04:01:59.742Z,77575.00
2023-02-27T04:04:28.879Z,77579.09
2023-02-27T04:07:18.773Z,77581.13
2023-02-27T04:10:08.467Z,77583.16
2023-02-27T04:12:54.109Z,77575.00
2023-02-27T04:15:30.047Z,77579.09
2023-02-27T04:18:09.359Z,77568.91
2023-02-27T04:20:42.697Z,77560.72
2023-02-27T04:23:18.735Z,77566.84
2023-02-27T04:25:58.409Z,77577.06
2023-02-27T04:28:37.312Z,77577.06
2023-02-27T04:31:13.636Z,77579.09
2023-02-27T04:33:45.866Z,77572.97
2023-02-27T04:36:21.316Z,77583.16
2023-02-27T04:38:53.332Z,77591.31
2023-02-27T04:41:25.446Z,77599.50
2023-02-27T04:43:56.223Z,77595.41
2023-02-27T04:46:29.057Z,77603.56
2023-02-27T04:49:01.919Z,77599.50
2023-02-27T04:51:35.951Z,77603.56
2023-02-27T04:54:09.230Z,77599.50
2023-02-27T04:56:41.600Z,77607.66
2023-02-27T04:59:17.441Z,77597.44
2023-02-27T05:01:49.895Z,77611.72
2023-02-27T05:04:22.748Z,77619.88
2023-02-27T05:06:52.499Z,77623.97
2023-02-27T05:09:26.535Z,77636.19
2023-02-27T05:11:59.903Z,77628.03
2023-02-27T05:14:35.133Z,77640.28
2023-02-27T05:17:08.577Z,77650.47
2023-02-27T05:19:39.459Z,77650.47
2023-02-27T05:22:18.122Z,77660.69
2023-02-27T05:24:53.519Z,77658.63
2023-02-27T05:27:26.732Z,77662.72
2023-02-27T05:30:00.911Z,77660.69
2023-02-27T05:32:35.789Z,77662.72
2023-02-27T05:35:12.160Z,77658.63
2023-02-27T05:37:45.922Z,77666.78
2023-02-27T05:40:17.962Z,77670.88
2023-02-27T05:42:51.783Z,77670.88
2023-02-27T05:45:26.222Z,77660.69
2023-02-27T05:47:59.595Z,77666.78
2023-02-27T05:50:30.887Z,77672.91
2023-02-27T05:53:03.048Z,77668.84
2023-02-27T05:55:35.944Z,77677.00
2023-02-27T05:58:09.615Z,77681.06
2023-02-27T06:00:43.893Z,77689.25
2023-02-27T06:03:12.196Z,77685.16
2023-02-27T06:05:42.545Z,77693.31
2023-02-27T06:08:11.356Z,77701.47
2023-02-27T06:10:39.746Z,77697.41
2023-02-27T06:13:07.480Z,77701.47
2023-02-27T06:15:35.258Z,77693.31
2023-02-27T06:18:04.618Z,77697.41
2023-02-27T06:20:32.374Z,77697.41
2023-02-27T06:23:00.124Z,77697.41
2023-02-27T06:25:27.974Z,77695.34
2023-02-27T06:27:55.712Z,77697.41
2023-02-27T06:30:23.461Z,77697.41
2023-02-27T06:32:51.222Z,77705.56
2023-02-27T06:35:20.649Z,77707.59
2023-02-27T06:37:48.514Z,77707.59
2023-02-27T06:40:19.113Z,77705.56
2023-02-27T06:42:46.877Z,77703.50
2023-02-27T06:45:16.476Z,77713.72
2023-02-27T06:47:44.581Z,77713.72
2023-02-27T06:50:14.555Z,77707.59
2023-02-27T06:52:43.660Z,77711.66
2023-02-27T06:55:12.419Z,77717.78
2023-02-27T06:57:40.181Z,77721.88
2023-02-27T07:00:10.092Z,77725.94
2023-02-27T07:02:37.870Z,77730.03
2023-02-27T07:05:07.959Z,77717.78
2023-02-27T07:07:38.282Z,77721.88
2023-02-27T07:10:11.678Z,77711.66
2023-02-27T07:12:39.931Z,77713.72
2023-02-27T07:15:08.683Z,77709.63
2023-02-27T07:17:36.478Z,77709.63
2023-02-27T07:20:05.138Z,77705.56
2023-02-27T07:22:33.033Z,77701.47
2023-02-27T07:25:00.769Z,77693.31
2023-02-27T07:27:30.159Z,77697.41
2023-02-27T07:29:57.979Z,77691.28
2023-02-27T07:32:25.851Z,77689.25
2023-02-27T07:34:53.664Z,77681.06
2023-02-27T07:37:21.473Z,77677.00
2023-02-27T07:39:49.209Z,77664.75
2023-02-27T07:42:16.992Z,77672.91
2023-02-27T07:44:46.251Z,77674.97
2023-02-27T07:47:14.026Z,77674.97
2023-02-27T07:49:41.796Z,77664.75
2023-02-27T07:52:09.606Z,77664.75
2023-02-27T07:54:38.301Z,77660.69
2023-02-27T07:57:06.140Z,77656.59
2023-02-27T07:59:34.209Z,77652.53
2023-02-27T08:02:03.435Z,77636.19
2023-02-27T08:04:31.171Z,77628.03
2023-02-27T08:06:59.025Z,77636.19
2023-02-27T08:09:26.758Z,77652.53
2023-02-27T08:11:54.490Z,77644.38
2023-02-27T08:14:22.276Z,77628.03
2023-02-27T08:16:50.025Z,77628.03
2023-02-27T08:19:19.094Z,77615.81
2023-02-27T08:21:46.878Z,77619.88
2023-02-27T08:24:14.617Z,77611.72
2023-02-27T08:26:42.362Z,77615.81
2023-02-27T08:29:10.170Z,77609.69
2023-02-27T08:31:38.048Z,77599.50
2023-02-27T08:34:10.286Z,77599.50
2023-02-27T08:36:40.366Z,77609.69
2023-02-27T08:39:09.335Z,77609.69
2023-02-27T08:41:37.715Z,77619.88
2023-02-27T08:44:05.906Z,77609.69
2023-02-27T08:46:33.675Z,77595.41
2023-02-27T08:49:01.400Z,77589.28
2023-02-27T08:51:29.553Z,77603.56
2023-02-27T08:53:59.050Z,77613.75
2023-02-27T08:56:27.353Z,77634.16
2023-02-27T08:58:55.807Z,77648.44
2023-02-27T09:01:23.861Z,77632.13
2023-02-27T09:03:51.627Z,77597.44
2023-02-27T09:06:19.454Z,77579.09
2023-02-27T09:08:47.204Z,77575.00
2023-02-27T09:11:16.273Z,77591.31
2023-02-27T09:13:44.039Z,77593.38
2023-02-27T09:16:11.864Z,77593.38
2023-02-27T09:18:39.633Z,77587.25
2023-02-27T09:21:07.453Z,77562.78
2023-02-27T09:23:35.179Z,77560.72
2023-02-27T09:26:02.953Z,77554.63
2023-02-27T09:28:32.460Z,77566.84
2023-02-27T09:31:01.842Z,77560.72
2023-02-27T09:33:29.665Z,77579.09
2023-02-27T09:35:57.585Z,77546.47
2023-02-27T09:38:25.357Z,77521.97
2023-02-27T09:40:56.627Z,77497.50
2023-02-27T09:43:30.617Z,77481.19
2023-02-27T09:46:01.817Z,77468.94
2023-02-27T09:48:33.414Z,77485.28
2023-02-27T09:51:01.918Z,77450.59
2023-02-27T09:53:32.839Z,77444.47
2023-02-27T09:56:07.548Z,77464.88
2023-02-27T09:58:45.212Z,77477.09
2023-02-27T10:01:20.759Z,77493.44
2023-02-27T10:04:13.916Z,77519.94
2023-02-27T10:06:45.130Z,77532.19
2023-02-27T10:09:26.566Z,77534.22
2023-02-27T10:12:05.833Z,77542.38
2023-02-27T10:14:42.798Z,77550.53
2023-02-27T10:17:21.039Z,77554.63
2023-02-27T10:19:50.982Z,77536.25
2023-02-27T10:22:25.105Z,77526.06
2023-02-27T10:24:59.785Z,77503.63
2023-02-27T10:27:27.657Z,77526.06
2023-02-27T10:30:12.961Z,77524.03
2023-02-27T10:32:47.675Z,77505.66
2023-02-27T10:35:27.015Z,77501.59
2023-02-27T10:38:00.540Z,77481.19
2023-02-27T10:40:29.990Z,77497.50
2023-02-27T10:43:01.026Z,77462.84
2023-02-27T10:45:28.790Z,77434.28
2023-02-27T10:47:57.940Z,77438.34
2023-02-27T10:50:28.553Z,77430.19
2023-02-27T10:52:58.144Z,77415.91
2023-02-27T10:55:28.535Z,77405.72
2023-02-27T10:57:58.348Z,77430.19
2023-02-27T11:00:35.287Z,77446.50
2023-02-27T11:03:05.489Z,77432.25
2023-02-27T11:05:35.010Z,77434.28
2023-02-27T11:08:14.158Z,77389.41
2023-02-27T11:10:58.797Z,77387.38
2023-02-27T11:13:30.146Z,77383.28
2023-02-27T11:16:09.149Z,77395.53
2023-02-27T11:18:39.536Z,77379.22
2023-02-27T11:21:23.914Z,77411.84
2023-02-27T11:23:55.287Z,77395.53
2023-02-27T11:26:26.561Z,77379.22
2023-02-27T11:29:17.811Z,77373.09
2023-02-27T11:31:48.971Z,77381.25
2023-02-27T11:34:25.653Z,77383.28
2023-02-27T11:36:56.973Z,77366.97
2023-02-27T11:39:31.748Z,77330.25
2023-02-27T11:42:09.062Z,77338.41
2023-02-27T11:44:50.606Z,77334.34
2023-02-27T11:47:24.323Z,77313.94
2023-02-27T11:50:20.802Z,77318.03
2023-02-27T11:52:51.754Z,77277.22
2023-02-27T11:55:24.045Z,77250.72
2023-02-27T11:57:58.248Z,77195.66
2023-02-27T12:00:31.666Z,77165.06
2023-02-27T12:03:04.366Z,77154.88
2023-02-27T12:05:40.710Z,77193.63
2023-02-27T12:08:15.083Z,77191.56
2023-02-27T12:10:49.773Z,77224.22
2023-02-27T12:13:21.407Z,77197.69
2023-02-27T12:15:55.865Z,77175.25
2023-02-27T12:18:29.236Z,77195.66
2023-02-27T12:21:02.383Z,77203.81
2023-02-27T12:23:36.673Z,77205.84
2023-02-27T12:26:09.363Z,77195.66
2023-02-27T12:28:47.121Z,77179.34
2023-02-27T12:31:28.326Z,77171.19
2023-02-27T12:34:01.661Z,77199.72
2023-02-27T12:36:31.364Z,77191.56
2023-02-27T12:38:59.261Z,77187.50
2023-02-27T12:41:48.054Z,77216.03
2023-02-27T12:44:34.095Z,77218.09
2023-02-27T12:47:13.750Z,77252.75
2023-02-27T12:49:51.219Z,77293.53
2023-02-27T12:52:31.114Z,77281.31
2023-02-27T12:55:07.573Z,77299.66
2023-02-27T12:57:48.489Z,77301.72
2023-02-27T13:00:20.470Z,77291.50
2023-02-27T13:02:57.788Z,77277.22
2023-02-27T13:05:33.271Z,77262.97
2023-02-27T13:08:10.534Z,77252.75
2023-02-27T13:10:46.358Z,77248.69
2023-02-27T13:13:24.261Z,77277.22
2023-02-27T13:15:56.559Z,77291.50
2023-02-27T13:18:38.050Z,77275.19
2023-02-27T13:21:13.368Z,77309.88
2023-02-27T13:23:58.327Z,77309.88
2023-02-27T13:26:29.838Z,77313.94
2023-02-27T13:28:59.131Z,77299.66
2023-02-27T13:31:35.553Z,77318.03
2023-02-27T13:34:14.181Z,77338.41
2023-02-27T13:36:45.292Z,77326.19
2023-02-27T13:39:52.585Z,77330.25
2023-02-27T13:42:52.540Z,77311.91
2023-02-27T13:45:48.813Z,77295.59
2023-02-27T13:48:43.680Z,77281.31
2023-02-27T13:51:53.414Z,77271.13
2023-02-27T13:54:30.467Z,77246.63
2023-02-27T13:57:22.546Z,77244.59
2023-02-27T13:59:56.780Z,77240.53
2023-02-27T14:02:57.899Z,77269.06
2023-02-27T14:05:33.253Z,77273.16
2023-02-27T14:08:07.824Z,77265.00
2023-02-27T14:10:38.098Z,77277.22
2023-02-27T14:13:27.759Z,77297.63
2023-02-27T14:16:00.378Z,77283.34
2023-02-27T14:18:57.568Z,77289.47
2023-02-27T14:21:55.819Z,77313.94
2023-02-27T14:24:38.186Z,77330.25
2023-02-27T14:27:16.376Z,77346.56
2023-02-27T14:29:48.401Z,77326.19
2023-02-27T14:32:21.541Z,77328.22
2023-02-27T14:34:50.642Z,77318.03
2023-02-27T14:37:23.561Z,77338.41
2023-02-27T14:39:53.413Z,77344.53
2023-02-27T14:42:39.184Z,77338.41
2023-02-27T14:45:17.781Z,77358.81
2023-02-27T14:47:47.278Z,77371.06
2023-02-27T14:50:25.004Z,77391.44
2023-02-27T14:52:52.985Z,77375.13
2023-02-27T14:55:27.814Z,77395.53
2023-02-27T14:57:57.765Z,77379.22
2023-02-27T15:00:42.077Z,77397.56
2023-02-27T15:03:19.770Z,77397.56
2023-02-27T15:05:48.899Z,77434.28
2023-02-27T15:08:21.414Z,77420.00
2023-02-27T15:10:49.658Z,77426.13
2023-02-27T15:13:25.278Z,77424.09
2023-02-27T15:16:21.670Z,77426.13
2023-02-27T15:18:50.994Z,77432.25
2023-02-27T15:21:20.799Z,77430.19
2023-02-27T15:23:55.436Z,77440.41
2023-02-27T15:26:23.392Z,77444.47
2023-02-27T15:28:52.020Z,77452.63
2023-02-27T15:31:26.775Z,77456.72
2023-02-27T15:33:56.146Z,77491.38
2023-02-27T15:36:26.513Z,77501.59
2023-02-27T15:39:15.303Z,77495.47
2023-02-27T15:41:43.898Z,77501.59
2023-02-27T15:44:13.920Z,77497.50
2023-02-27T15:46:43.921Z,77483.22
2023-02-27T15:49:17.904Z,77501.59
2023-02-27T15:51:47.815Z,77515.84
2023-02-27T15:54:15.802Z,77521.97
2023-02-27T15:56:44.086Z,77505.66
2023-02-27T15:59:18.160Z,77497.50
2023-02-27T16:01:49.581Z,77501.59
2023-02-27T16:04:24.657Z,77501.59
2023-02-27T16:06:59.112Z,77499.53
2023-02-27T16:09:31.391Z,77526.06
2023-02-27T16:12:20.912Z,77534.22
2023-02-27T16:14:48.846Z,77546.47
2023-02-27T16:17:27.101Z,77575.00
2023-02-27T16:19:54.947Z,77566.84
2023-02-27T16:22:23.589Z,77554.63
2023-02-27T16:24:52.117Z,77575.00
2023-02-27T16:27:24.715Z,77591.31
2023-02-27T16:29:54.685Z,77595.41
2023-02-27T16:32:27.315Z,77603.56
2023-02-27T16:35:03.639Z,77585.22
2023-02-27T16:37:36.937Z,77595.41
2023-02-27T16:40:11.550Z,77595.41
2023-02-27T16:42:40.545Z,77603.56
2023-02-27T16:45:09.296Z,77599.50
2023-02-27T16:47:38.372Z,77609.69
2023-02-27T16:50:13.396Z,77621.94
2023-02-27T16:52:42.129Z,77628.03
2023-02-27T16:55:10.352Z,77621.94
2023-02-27T16:57:38.116Z,77632.13
2023-02-27T17:00:08.458Z,77632.13
2023-02-27T17:02:36.246Z,77648.44
2023-02-27T17:05:06.031Z,77648.44
2023-02-27T17:07:34.034Z,77664.75
2023-02-27T17:10:01.817Z,77666.78
2023-02-27T17:12:29.611Z,77666.78
2023-02-27T17:14:57.432Z,77672.91
2023-02-27T17:17:25.211Z,77683.13
2023-02-27T17:19:52.998Z,77681.06
2023-02-27T17:22:22.150Z,77681.06
2023-02-27T17:24:49.996Z,77693.31
2023-02-27T17:27:17.794Z,77697.41
2023-02-27T17:29:45.604Z,77681.06
2023-02-27T17:32:13.397Z,77685.16
2023-02-27T17:34:41.162Z,77681.06
2023-02-27T17:37:08.965Z,77687.19
2023-02-27T17:39:39.097Z,77693.31
2023-02-27T17:42:06.907Z,77713.72
2023-02-27T17:44:34.920Z,77693.31
2023-02-27T17:47:02.662Z,77711.66
2023-02-27T17:49:30.386Z,77715.75
2023-02-27T17:52:00.606Z,77693.31
2023-02-27T17:54:28.622Z,77705.56
2023-02-27T17:56:57.728Z,77713.72
2023-02-27T17:59:25.530Z,77711.66
2023-02-27T18:01:55.575Z,77713.72
2023-02-27T18:04:23.582Z,77713.72
2023-02-27T18:06:51.533Z,77730.03
2023-02-27T18:09:19.307Z,77721.88
2023-02-27T18:11:47.112Z,77730.03
2023-02-27T18:14:16.837Z,77734.09
2023-02-27T18:16:45.145Z,77744.31
2023-02-27T18:19:15.020Z,77742.28
2023-02-27T18:21:44.541Z,77746.34
2023-02-27T18:24:12.355Z,77746.34
2023-02-27T18:26:40.674Z,77750.44
2023-02-27T18:29:10.891Z,77764.72
2023-02-27T18:31:42.733Z,77760.63
2023-02-27T18:34:11.273Z,77754.50
2023-02-27T18:36:39.556Z,77760.63
2023-02-27T18:39:07.700Z,77762.66
2023-02-27T18:41:35.940Z,77754.50
2023-02-27T18:44:04.695Z,77748.38
2023-02-27T18:46:33.063Z,77758.59
2023-02-27T18:49:02.792Z,77734.09
2023-02-27T18:51:31.257Z,77734.09
2023-02-27T18:54:00.072Z,77750.44
2023-02-27T18:56:30.389Z,77758.59
2023-02-27T18:59:01.949Z,77742.28
2023-02-27T19:01:34.031Z,77754.50
2023-02-27T19:04:04.836Z,77756.53
2023-02-27T19:06:34.210Z,77758.59
2023-02-27T19:09:02.127Z,77770.81
2023-02-27T19:11:33.270Z,77764.72
2023-02-27T19:14:02.061Z,77770.81
2023-02-27T19:16:30.801Z,77766.75
2023-02-27T19:19:00.003Z,77766.75
2023-02-27T19:21:29.800Z,77770.81
2023-02-27T19:23:57.948Z,77758.59
2023-02-27T19:26:26.687Z,77764.72
2023-02-27T19:28:55.917Z,77772.88
2023-02-27T19:31:28.538Z,77772.88
2023-02-27T19:33:56.665Z,77770.81
2023-02-27T19:36:26.540Z,77778.97
2023-02-27T19:38:56.668Z,77776.94
2023-02-27T19:41:25.367Z,77770.81
2023-02-27T19:43:53.498Z,77758.59
2023-02-27T19:46:24.742Z,77756.53
2023-02-27T19:48:53.676Z,77774.91
2023-02-27T19:51:22.122Z,77774.91
2023-02-27T19:53:50.049Z,77774.91
2023-02-27T19:56:21.501Z,77783.06
2023-02-27T19:58:49.886Z,77770.81
2023-02-27T20:01:24.760Z,77778.97
2023-02-27T20:03:52.613Z,77770.81
2023-02-27T20:06:23.171Z,77799.38
2023-02-27T20:08:51.348Z,77803.47
2023-02-27T20:11:21.768Z,77781.03
2023-02-27T20:13:50.630Z,77785.09
2023-02-27T20:16:22.226Z,77776.94
2023-02-27T20:18:50.233Z,77791.22
2023-02-27T20:21:20.724Z,77793.25
2023-02-27T20:23:50.208Z,77795.31
2023-02-27T20:26:22.269Z,77783.06
2023-02-27T20:28:52.117Z,77803.47
2023-02-27T20:31:22.166Z,77805.50
2023-02-27T20:33:50.421Z,77805.50
2023-02-27T20:36:18.643Z,77819.78
2023-02-27T20:38:46.605Z,77819.78
2023-02-27T20:41:16.545Z,77829.97
2023-02-27T20:43:46.107Z,77807.53
2023-02-27T20:46:16.737Z,77811.63
2023-02-27T20:48:45.275Z,77819.78
2023-02-27T20:51:15.118Z,77815.69
2023-02-27T20:53:45.078Z,77795.31
2023-02-27T20:56:12.951Z,77805.50
2023-02-27T20:58:41.018Z,77811.63
2023-02-27T21:01:10.823Z,77825.91
2023-02-27T21:03:39.903Z,77815.69
2023-02-27T21:06:09.329Z,77805.50
2023-02-27T21:08:37.619Z,77815.69
2023-02-27T21:11:09.419Z,77813.66
2023-02-27T21:13:37.927Z,77811.63
2023-02-27T21:16:07.627Z,77809.59
2023-02-27T21:18:37.574Z,77815.69
2023-02-27T21:21:06.423Z,77807.53
2023-02-27T21:23:41.411Z,77815.69
2023-02-27T21:26:09.525Z,77823.84
2023-02-27T21:28:42.217Z,77811.63
2023-02-27T21:31:09.974Z,77829.97
2023-02-27T21:33:39.166Z,77821.81
2023-02-27T21:36:07.582Z,77832.03
2023-02-27T21:38:35.318Z,77842.22
2023-02-27T21:41:06.028Z,77821.81
2023-02-27T21:43:34.457Z,77829.97
2023-02-27T21:46:05.528Z,77836.09
2023-02-27T21:48:33.764Z,77844.25
2023-02-27T21:51:03.541Z,77836.09
2023-02-27T21:53:31.766Z,77836.09
2023-02-27T21:56:03.803Z,77846.28
2023-02-27T21:58:31.623Z,77848.34
2023-02-27T22:00:59.836Z,77834.06
2023-02-27T22:03:34.145Z,77842.22
2023-02-27T22:06:03.369Z,77844.25
2023-02-27T22:08:31.127Z,77832.03
2023-02-27T22:10:59.857Z,77848.34
2023-02-27T22:13:29.344Z,77844.25
2023-02-27T22:15:57.158Z,77860.56
2023-02-27T22:18:26.152Z,77852.41
2023-02-27T22:20:53.936Z,77852.41
2023-02-27T22:23:23.070Z,77852.41
2023-02-27T22:26:01.406Z,77844.25
2023-02-27T22:28:31.302Z,77856.50
2023-02-27T22:31:11.174Z,77848.34
2023-02-27T22:33:39.773Z,77840.19
2023-02-27T22:36:08.959Z,77858.53
2023-02-27T22:38:38.145Z,77866.69
2023-02-27T22:41:08.694Z,77872.81
2023-02-27T22:43:38.287Z,77872.81
2023-02-27T22:46:06.925Z,77864.66
2023-02-27T22:48:34.760Z,77864.66
2023-02-27T22:51:04.252Z,77864.66
2023-02-27T22:53:33.095Z,77874.84
2023-02-27T22:56:02.255Z,77874.84
2023-02-27T22:58:31.057Z,77880.97
2023-02-27T23:00:58.847Z,77868.75
2023-02-27T23:03:26.610Z,77872.81
2023-02-27T23:05:54.368Z,77883.00
2023-02-27T23:08:22.172Z,77885.06
2023-02-27T23:10:49.906Z,77897.28
2023-02-27T23:13:19.188Z,77889.13
2023-02-27T23:15:47.716Z,77897.28
2023-02-27T23:18:15.498Z,77876.91
2023-02-27T23:20:43.260Z,77885.06
2023-02-27T23:23:11.065Z,77885.06
2023-02-27T23:25:39.491Z,77885.06
2023-02-27T23:28:08.761Z,77885.06
2023-02-27T23:30:37.912Z,77883.00
2023-02-27T23:33:05.649Z,77885.06
2023-02-27T23:35:33.416Z,77889.13
2023-02-27T23:38:01.619Z,77887.09
2023-02-27T23:40:29.433Z,77893.22
2023-02-27T23:42:57.211Z,77893.22
2023-02-27T23:45:24.116Z,77903.41
2023-02-27T23:47:55.285Z,77891.19
2023-02-27T23:50:25.730Z,77903.41
2023-02-27T23:52:55.186Z,77899.34
2023-02-27T23:55:23.600Z,77909.53
2023-02-27T23:57:53.659Z,77893.22
